sensor_id;sensor_type;location;lat;lon;timestamp;pressure;altitude;pressure_sealevel;temperature;humidity
44675;BME280;30388;52.038;-1.478;2023-03-14T00:01:20;65264.15;;;4.98;100.00
44675;BME280;30388;52.038;-1.478;2023-03-14T00:03:48;65253.04;;;5.33;100.00
44675;BME280;30388;52.038;-1.478;2023-03-14T00:06:16;65274.80;;;5.61;100.00
44675;BME280;30388;52.038;-1.478;2023-03-14T00:08:43;65276.64;;;5.62;100.00
44675;BME280;30388;52.038;-1.478;2023-03-14T00:11:13;65283.80;;;5.71;100.00
44675;BME280;30388;52.038;-1.478;2023-03-14T00:13:40;65291.46;;;5.81;100.00
44675;BME280;30388;52.038;-1.478;2023-03-14T00:16:10;65295.28;;;5.86;100.00
44675;BME280;30388;52.038;-1.478;2023-03-14T00:18:38;65229.89;;;5.25;100.00
44675;BME280;30388;52.038;-1.478;2023-03-14T00:21:08;65183.25;;;4.44;100.00
44675;BME280;30388;52.038;-1.478;2023-03-14T00:23:37;65174.95;;;4.82;100.00
44675;BME280;30388;52.038;-1.478;2023-03-14T00:26:06;65133.75;;;4.30;100.00
44675;BME280;30388;52.038;-1.478;2023-03-14T00:28:35;65101.15;;;4.11;100.00
44675;BME280;30388;52.038;-1.478;2023-03-14T00:31:03;65078.34;;;3.82;100.00
44675;BME280;30388;52.038;-1.478;2023-03-14T00:33:30;65161.04;;;4.65;100.00
44675;BME280;30388;52.038;-1.478;2023-03-14T00:35:59;65107.15;;;4.18;100.00
44675;BME280;30388;52.038;-1.478;2023-03-14T00:38:27;65061.48;;;3.82;100.00
44675;BME280;30388;52.038;-1.478;2023-03-14T00:40:55;65039.54;;;3.55;100.00
44675;BME280;30388;52.038;-1.478;2023-03-14T00:43:23;65039.45;;;3.54;100.00
44675;BME280;30388;52.038;-1.478;2023-03-14T00:45:51;65002.94;;;3.07;100.00
44675;BME280;30388;52.038;-1.478;2023-03-14T00:48:20;65020.77;;;3.31;100.00
44675;BME280;30388;52.038;-1.478;2023-03-14T00:50:48;64989.43;;;3.17;100.00
44675;BME280;30388;52.038;-1.478;2023-03-14T00:53:15;64957.53;;;2.99;100.00
44675;BME280;30388;52.038;-1.478;2023-03-14T00:55:45;64929.02;;;2.62;100.00
44675;BME280;30388;52.038;-1.478;2023-03-14T00:58:14;64912.57;;;2.41;100.00
44675;BME280;30388;52.038;-1.478;2023-03-14T01:00:42;64975.94;;;3.22;100.00
44675;BME280;30388;52.038;-1.478;2023-03-14T01:03:12;64933.11;;;2.68;100.00
44675;BME280;30388;52.038;-1.478;2023-03-14T01:05:39;64943.74;;;2.81;100.00
44675;BME280;30388;52.038;-1.478;2023-03-14T01:08:07;64979.18;;;3.03;100.00
44675;BME280;30388;52.038;-1.478;2023-03-14T01:10:34;64921.56;;;2.31;100.00
44675;BME280;30388;52.038;-1.478;2023-03-14T01:13:01;64964.29;;;3.07;100.00
44675;BME280;30388;52.038;-1.478;2023-03-14T01:15:28;65001.58;;;3.06;100.00
44675;BME280;30388;52.038;-1.478;2023-03-14T01:17:55;65027.09;;;3.16;100.00
44675;BME280;30388;52.038;-1.478;2023-03-14T01:20:23;65145.65;;;4.67;100.00
44675;BME280;30388;52.038;-1.478;2023-03-14T01:22:50;65181.50;;;4.91;100.00
44675;BME280;30388;52.038;-1.478;2023-03-14T01:25:18;65035.55;;;3.27;100.00
44675;BME280;30388;52.038;-1.478;2023-03-14T01:27:46;65017.08;;;3.03;100.00
44675;BME280;30388;52.038;-1.478;2023-03-14T01:30:14;65043.47;;;3.36;100.00
44675;BME280;30388;52.038;-1.478;2023-03-14T01:32:41;64905.39;;;2.10;100.00
44675;BME280;30388;52.038;-1.478;2023-03-14T01:35:08;64958.15;;;2.51;100.00
44675;BME280;30388;52.038;-1.478;2023-03-14T01:37:36;64985.69;;;2.85;100.00
44675;BME280;30388;52.038;-1.478;2023-03-14T01:40:03;65025.58;;;3.36;100.00
44675;BME280;30388;52.038;-1.478;2023-03-14T01:42:30;65051.72;;;3.70;100.00
44675;BME280;30388;52.038;-1.478;2023-03-14T01:44:59;65064.59;;;3.64;100.00
44675;BME280;30388;52.038;-1.478;2023-03-14T01:47:27;65011.30;;;2.74;100.00
44675;BME280;30388;52.038;-1.478;2023-03-14T01:49:56;65023.65;;;3.34;100.00
44675;BME280;30388;52.038;-1.478;2023-03-14T01:52:29;64962.27;;;2.56;100.00
44675;BME280;30388;52.038;-1.478;2023-03-14T01:55:00;64918.77;;;2.27;100.00
44675;BME280;30388;52.038;-1.478;2023-03-14T01:57:31;64926.42;;;2.60;100.00
44675;BME280;30388;52.038;-1.478;2023-03-14T02:00:04;64973.24;;;2.70;100.00
44675;BME280;30388;52.038;-1.478;2023-03-14T02:02:32;64990.88;;;2.92;100.00
44675;BME280;30388;52.038;-1.478;2023-03-14T02:05:00;64998.73;;;3.02;100.00
44675;BME280;30388;52.038;-1.478;2023-03-14T02:07:34;64934.06;;;2.20;100.00
44675;BME280;30388;52.038;-1.478;2023-03-14T02:10:04;65036.21;;;3.27;100.00
44675;BME280;30388;52.038;-1.478;2023-03-14T02:12:32;64984.76;;;2.62;100.00
44675;BME280;30388;52.038;-1.478;2023-03-14T02:15:00;64931.66;;;2.65;100.00
44675;BME280;30388;52.038;-1.478;2023-03-14T02:17:28;64951.02;;;2.90;100.00
44675;BME280;30388;52.038;-1.478;2023-03-14T02:20:06;64955.17;;;2.47;100.00
44675;BME280;30388;52.038;-1.478;2023-03-14T02:22:39;64894.26;;;2.17;100.00
44675;BME280;30388;52.038;-1.478;2023-03-14T02:25:10;64913.96;;;2.43;100.00
44675;BME280;30388;52.038;-1.478;2023-03-14T02:27:39;64893.45;;;2.17;100.00
44675;BME280;30388;52.038;-1.478;2023-03-14T02:30:10;64919.70;;;2.50;100.00
44675;BME280;30388;52.038;-1.478;2023-03-14T02:32:41;64906.88;;;2.34;100.00
44675;BME280;30388;52.038;-1.478;2023-03-14T02:35:12;64915.27;;;1.95;100.00
44675;BME280;30388;52.038;-1.478;2023-03-14T02:37:46;64837.08;;;1.45;100.00
44675;BME280;30388;52.038;-1.478;2023-03-14T02:40:15;64867.00;;;2.05;100.00
44675;BME280;30388;52.038;-1.478;2023-03-14T02:42:42;64808.99;;;1.58;100.00
44675;BME280;30388;52.038;-1.478;2023-03-14T02:45:43;64773.38;;;1.13;100.00
44675;BME280;30388;52.038;-1.478;2023-03-14T02:48:15;64858.29;;;1.94;100.00
44675;BME280;30388;52.038;-1.478;2023-03-14T02:50:45;64789.36;;;1.34;100.00
44675;BME280;30388;52.038;-1.478;2023-03-14T02:53:17;64730.66;;;0.80;100.00
44675;BME280;30388;52.038;-1.478;2023-03-14T02:55:48;64733.08;;;1.10;100.00
44675;BME280;30388;52.038;-1.478;2023-03-14T02:58:16;64787.70;;;1.53;100.00
44675;BME280;30388;52.038;-1.478;2023-03-14T03:00:45;64774.95;;;1.15;100.00
44675;BME280;30388;52.038;-1.478;2023-03-14T03:03:12;64802.35;;;1.23;100.00
44675;BME280;30388;52.038;-1.478;2023-03-14T03:05:40;64789.72;;;1.07;100.00
44675;BME280;30388;52.038;-1.478;2023-03-14T03:08:08;64782.09;;;1.24;100.00
44675;BME280;30388;52.038;-1.478;2023-03-14T03:10:36;64779.58;;;1.21;100.00
44675;BME280;30388;52.038;-1.478;2023-03-14T03:13:03;64827.68;;;1.55;100.00
44675;BME280;30388;52.038;-1.478;2023-03-14T03:15:31;64880.97;;;2.01;100.00
44675;BME280;30388;52.038;-1.478;2023-03-14T03:17:58;64865.07;;;1.80;100.00
44675;BME280;30388;52.038;-1.478;2023-03-14T03:20:25;64766.70;;;0.77;100.00
44675;BME280;30388;52.038;-1.478;2023-03-14T03:22:52;64754.79;;;0.89;100.00
44675;BME280;30388;52.038;-1.478;2023-03-14T03:25:19;64807.15;;;1.29;100.00
44675;BME280;30388;52.038;-1.478;2023-03-14T03:27:47;64835.63;;;1.66;100.00
44675;BME280;30388;52.038;-1.478;2023-03-14T03:30:14;64842.37;;;1.75;100.00
44675;BME280;30388;52.038;-1.478;2023-03-14T03:32:42;64793.26;;;0.89;100.00
44675;BME280;30388;52.038;-1.478;2023-03-14T03:35:10;64857.15;;;1.71;100.00
44675;BME280;30388;52.038;-1.478;2023-03-14T03:37:38;64817.37;;;1.20;100.00
44675;BME280;30388;52.038;-1.478;2023-03-14T03:40:07;64851.66;;;1.64;100.00
44675;BME280;30388;52.038;-1.478;2023-03-14T03:42:34;64828.54;;;1.56;100.00
44675;BME280;30388;52.038;-1.478;2023-03-14T03:45:03;64749.83;;;0.83;100.00
44675;BME280;30388;52.038;-1.478;2023-03-14T03:47:31;64813.16;;;1.64;100.00
44675;BME280;30388;52.038;-1.478;2023-03-14T03:49:58;64779.47;;;0.94;100.00
44675;BME280;30388;52.038;-1.478;2023-03-14T03:52:25;64775.02;;;1.15;100.00
44675;BME280;30388;52.038;-1.478;2023-03-14T03:54:52;64816.84;;;1.42;100.00
44675;BME280;30388;52.038;-1.478;2023-03-14T03:57:19;64821.77;;;1.48;100.00
44675;BME280;30388;52.038;-1.478;2023-03-14T03:59:47;64799.15;;;0.97;100.00
44675;BME280;30388;52.038;-1.478;2023-03-14T04:02:15;64819.03;;;1.45;100.00
44675;BME280;30388;52.038;-1.478;2023-03-14T04:04:41;64808.65;;;1.09;100.00
44675;BME280;30388;52.038;-1.478;2023-03-14T04:07:09;64842.42;;;1.52;100.00
44675;BME280;30388;52.038;-1.478;2023-03-14T04:09:37;64798.49;;;1.18;100.00
44675;BME280;30388;52.038;-1.478;2023-03-14T04:12:04;64903.21;;;1.81;100.00
44675;BME280;30388;52.038;-1.478;2023-03-14T04:14:31;64971.57;;;2.67;100.00
44675;BME280;30388;52.038;-1.478;2023-03-14T04:16:58;64963.22;;;2.83;100.00
44675;BME280;30388;52.038;-1.478;2023-03-14T04:19:25;64979.35;;;2.78;100.00
44675;BME280;30388;52.038;-1.478;2023-03-14T04:21:53;64910.96;;;1.90;100.00
44675;BME280;30388;52.038;-1.478;2023-03-14T04:24:20;64865.96;;;1.59;100.00
44675;BME280;30388;52.038;-1.478;2023-03-14T04:26:47;64897.06;;;2.21;100.00
44675;BME280;30388;52.038;-1.478;2023-03-14T04:29:14;64829.84;;;1.57;100.00
44675;BME280;30388;52.038;-1.478;2023-03-14T04:31:41;64839.85;;;1.48;100.00
44675;BME280;30388;52.038;-1.478;2023-03-14T04:34:09;64886.52;;;2.08;100.00
44675;BME280;30388;52.038;-1.478;2023-03-14T04:36:37;64826.48;;;1.54;100.00
44675;BME280;30388;52.038;-1.478;2023-03-14T04:39:03;64797.65;;;1.43;100.00
44675;BME280;30388;52.038;-1.478;2023-03-14T04:41:31;64783.56;;;0.98;100.00
44675;BME280;30388;52.038;-1.478;2023-03-14T04:43:58;64785.54;;;1.00;100.00
44675;BME280;30388;52.038;-1.478;2023-03-14T04:46:25;64825.61;;;1.79;100.00
44675;BME280;30388;52.038;-1.478;2023-03-14T04:48:53;64806.28;;;1.54;100.00
44675;BME280;30388;52.038;-1.478;2023-03-14T04:51:20;64838.58;;;1.46;100.00
44675;BME280;30388;52.038;-1.478;2023-03-14T04:53:47;64796.58;;;1.15;100.00
44675;BME280;30388;52.038;-1.478;2023-03-14T04:56:14;64770.92;;;0.82;100.00
44675;BME280;30388;52.038;-1.478;2023-03-14T04:58:42;64813.03;;;1.37;100.00
44675;BME280;30388;52.038;-1.478;2023-03-14T05:01:09;64915.28;;;2.45;100.00
44675;BME280;30388;52.038;-1.478;2023-03-14T05:03:37;64854.36;;;1.66;100.00
44675;BME280;30388;52.038;-1.478;2023-03-14T05:06:04;64898.89;;;2.02;100.00
44675;BME280;30388;52.038;-1.478;2023-03-14T05:08:32;64831.43;;;1.37;100.00
44675;BME280;30388;52.038;-1.478;2023-03-14T05:10:59;64905.65;;;2.32;100.00
44675;BME280;30388;52.038;-1.478;2023-03-14T05:13:26;64864.49;;;1.80;100.00
44675;BME280;30388;52.038;-1.478;2023-03-14T05:15:53;64786.08;;;1.28;100.00
44675;BME280;30388;52.038;-1.478;2023-03-14T05:18:20;64807.60;;;1.30;100.00
44675;BME280;30388;52.038;-1.478;2023-03-14T05:20:50;64828.90;;;1.56;100.00
44675;BME280;30388;52.038;-1.478;2023-03-14T05:23:18;64782.58;;;1.24;100.00
44675;BME280;30388;52.038;-1.478;2023-03-14T05:25:45;64810.10;;;1.60;100.00
44675;BME280;30388;52.038;-1.478;2023-03-14T05:28:13;64770.38;;;0.82;100.00
44675;BME280;30388;52.038;-1.478;2023-03-14T05:30:40;64859.70;;;1.96;100.00
44675;BME280;30388;52.038;-1.478;2023-03-14T05:33:07;64810.69;;;1.33;100.00
44675;BME280;30388;52.038;-1.478;2023-03-14T05:35:34;64825.30;;;1.30;100.00
44675;BME280;30388;52.038;-1.478;2023-03-14T05:38:01;64816.82;;;1.42;100.00
44675;BME280;30388;52.038;-1.478;2023-03-14T05:40:28;64789.63;;;1.34;100.00
44675;BME280;30388;52.038;-1.478;2023-03-14T05:42:55;64790.56;;;1.35;100.00
44675;BME280;30388;52.038;-1.478;2023-03-14T05:45:22;64871.91;;;1.89;100.00
44675;BME280;30388;52.038;-1.478;2023-03-14T05:47:49;64904.45;;;1.82;100.00
44675;BME280;30388;52.038;-1.478;2023-03-14T05:50:16;64972.89;;;2.70;100.00
44675;BME280;30388;52.038;-1.478;2023-03-14T05:52:43;64929.25;;;2.40;100.00
44675;BME280;30388;52.038;-1.478;2023-03-14T05:55:09;64937.69;;;2.23;100.00
44675;BME280;30388;52.038;-1.478;2023-03-14T05:57:37;64933.86;;;2.20;100.00
44675;BME280;30388;52.038;-1.478;2023-03-14T06:00:05;64862.83;;;1.78;100.00
44675;BME280;30388;52.038;-1.478;2023-03-14T06:02:33;64888.05;;;2.10;100.00
44675;BME280;30388;52.038;-1.478;2023-03-14T06:05:00;64922.51;;;2.32;100.00
44675;BME280;30388;52.038;-1.478;2023-03-14T06:07:27;64919.91;;;1.31;100.00
44675;BME280;30388;52.038;-1.478;2023-03-14T06:09:54;64946.10;;;2.62;100.00
44675;BME280;30388;52.038;-1.478;2023-03-14T06:12:21;64896.44;;;2.21;100.00
44675;BME280;30388;52.038;-1.478;2023-03-14T06:14:48;64968.94;;;2.91;100.00
44675;BME280;30388;52.038;-1.478;2023-03-14T06:17:20;64949.66;;;2.67;100.00
44675;BME280;30388;52.038;-1.478;2023-03-14T06:19:47;65004.05;;;3.35;100.00
44675;BME280;30388;52.038;-1.478;2023-03-14T06:22:15;64984.01;;;2.83;100.00
44675;BME280;30388;52.038;-1.478;2023-03-14T06:24:43;64909.65;;;2.60;100.00
44675;BME280;30388;52.038;-1.478;2023-03-14T06:27:10;64872.84;;;1.91;100.00
44675;BME280;30388;52.038;-1.478;2023-03-14T06:29:37;64799.03;;;1.19;100.00
44675;BME280;30388;52.038;-1.478;2023-03-14T06:32:04;64870.09;;;1.87;100.00
44675;BME280;30388;52.038;-1.478;2023-03-14T06:34:31;64903.07;;;2.30;100.00
44675;BME280;30388;52.038;-1.478;2023-03-14T06:36:58;64890.11;;;2.13;100.00
44675;BME280;30388;52.038;-1.478;2023-03-14T06:39:26;64840.21;;;1.98;100.00
44675;BME280;30388;52.038;-1.478;2023-03-14T06:41:53;64800.88;;;1.48;100.00
44675;BME280;30388;52.038;-1.478;2023-03-14T06:44:20;64839.28;;;1.97;100.00
44675;BME280;30388;52.038;-1.478;2023-03-14T06:46:47;64746.06;;;0.78;100.00
44675;BME280;30388;52.038;-1.478;2023-03-14T06:49:14;64772.88;;;1.35;100.00
44675;BME280;30388;52.038;-1.478;2023-03-14T06:51:41;64759.77;;;1.18;100.00
44675;BME280;30388;52.038;-1.478;2023-03-14T06:54:09;64855.32;;;2.17;100.00
44675;BME280;30388;52.038;-1.478;2023-03-14T06:56:36;64828.82;;;1.84;100.00
44675;BME280;30388;52.038;-1.478;2023-03-14T06:59:03;64827.61;;;1.83;100.00
44675;BME280;30388;52.038;-1.478;2023-03-14T07:01:31;64842.67;;;2.01;100.00
44675;BME280;30388;52.038;-1.478;2023-03-14T07:03:58;64792.49;;;1.38;100.00
44675;BME280;30388;52.038;-1.478;2023-03-14T07:06:27;64762.84;;;1.00;100.00
44675;BME280;30388;52.038;-1.478;2023-03-14T07:08:54;64797.38;;;1.66;100.00
44675;BME280;30388;52.038;-1.478;2023-03-14T07:11:21;64752.65;;;0.87;100.00
44675;BME280;30388;52.038;-1.478;2023-03-14T07:13:49;64771.81;;;1.11;100.00
44675;BME280;30388;52.038;-1.478;2023-03-14T07:16:16;64771.61;;;1.34;100.00
44675;BME280;30388;52.038;-1.478;2023-03-14T07:18:43;64663.10;;;0.22;100.00
44675;BME280;30388;52.038;-1.478;2023-03-14T07:21:11;64756.86;;;1.41;100.00
44675;BME280;30388;52.038;-1.478;2023-03-14T07:23:39;64739.33;;;0.91;100.00
44675;BME280;30388;52.038;-1.478;2023-03-14T07:26:06;64814.96;;;1.87;100.00
44675;BME280;30388;52.038;-1.478;2023-03-14T07:28:34;64862.44;;;2.26;100.00
44675;BME280;30388;52.038;-1.478;2023-03-14T07:31:01;64908.58;;;2.37;100.00
44675;BME280;30388;52.038;-1.478;2023-03-14T07:33:28;64923.79;;;2.56;100.00
44675;BME280;30388;52.038;-1.478;2023-03-14T07:35:56;64804.80;;;1.53;100.00
44675;BME280;30388;52.038;-1.478;2023-03-14T07:38:23;64835.04;;;2.14;100.00
44675;BME280;30388;52.038;-1.478;2023-03-14T07:40:52;64779.75;;;1.21;100.00
44675;BME280;30388;52.038;-1.478;2023-03-14T07:43:31;64824.98;;;1.79;100.00
44675;BME280;30388;52.038;-1.478;2023-03-14T07:45:58;64824.70;;;1.79;100.00
44675;BME280;30388;52.038;-1.478;2023-03-14T07:48:25;64798.06;;;1.67;100.00
44675;BME280;30388;52.038;-1.478;2023-03-14T07:50:54;64782.18;;;1.25;100.00
44675;BME280;30388;52.038;-1.478;2023-03-14T07:53:22;64711.09;;;0.82;100.00
44675;BME280;30388;52.038;-1.478;2023-03-14T07:55:51;64734.30;;;1.34;100.00
44675;BME280;30388;52.038;-1.478;2023-03-14T07:58:18;64690.70;;;1.01;100.00
44675;BME280;30388;52.038;-1.478;2023-03-14T08:00:45;64653.02;;;0.79;100.00
44675;BME280;30388;52.038;-1.478;2023-03-14T08:03:13;64641.94;;;0.38;100.00
44675;BME280;30388;52.038;-1.478;2023-03-14T08:05:40;64618.58;;;0.09;100.00
44675;BME280;30388;52.038;-1.478;2023-03-14T08:08:07;64632.47;;;0.27;100.00
44675;BME280;30388;52.038;-1.478;2023-03-14T08:10:34;64643.26;;;0.40;100.00
44675;BME280;30388;52.038;-1.478;2023-03-14T08:13:01;64649.00;;;0.47;100.00
44675;BME280;30388;52.038;-1.478;2023-03-14T08:15:29;64706.13;;;0.98;100.00
44675;BME280;30388;52.038;-1.478;2023-03-14T08:17:56;64796.20;;;1.42;100.00
44675;BME280;30388;52.038;-1.478;2023-03-14T08:20:26;64813.03;;;1.64;100.00
44675;BME280;30388;52.038;-1.478;2023-03-14T08:22:56;64815.82;;;2.16;100.00
44675;BME280;30388;52.038;-1.478;2023-03-14T08:25:23;64805.35;;;1.76;100.00
44675;BME280;30388;52.038;-1.478;2023-03-14T08:27:50;64760.11;;;1.18;100.00
44675;BME280;30388;52.038;-1.478;2023-03-14T08:30:19;64854.41;;;2.16;100.00
44675;BME280;30388;52.038;-1.478;2023-03-14T08:32:52;64835.72;;;1.65;100.00
44675;BME280;30388;52.038;-1.478;2023-03-14T08:35:19;64848.10;;;1.81;100.00
44675;BME280;30388;52.038;-1.478;2023-03-14T08:37:46;64844.42;;;2.03;100.00
44675;BME280;30388;52.038;-1.478;2023-03-14T08:40:14;64871.02;;;2.38;100.00
44675;BME280;30388;52.038;-1.478;2023-03-14T08:42:40;64862.38;;;1.99;100.00
44675;BME280;30388;52.038;-1.478;2023-03-14T08:45:10;64832.31;;;1.61;100.00
44675;BME280;30388;52.038;-1.478;2023-03-14T08:47:38;64800.81;;;1.21;100.00
44675;BME280;30388;52.038;-1.478;2023-03-14T08:50:06;64858.58;;;1.95;100.00
44675;BME280;30388;52.038;-1.478;2023-03-14T08:52:34;64913.64;;;2.66;100.00
44675;BME280;30388;52.038;-1.478;2023-03-14T08:55:01;64920.00;;;2.51;100.00
44675;BME280;30388;52.038;-1.478;2023-03-14T08:57:28;64996.64;;;3.49;100.00
44675;BME280;30388;52.038;-1.478;2023-03-14T08:59:55;65017.76;;;3.76;100.00
44675;BME280;30388;52.038;-1.478;2023-03-14T09:02:23;65015.16;;;3.24;100.00
44675;BME280;30388;52.038;-1.478;2023-03-14T09:04:51;65066.56;;;3.89;100.00
44675;BME280;30388;52.038;-1.478;2023-03-14T09:07:19;65044.75;;;4.10;100.00
44675;BME280;30388;52.038;-1.478;2023-03-14T09:09:51;64923.96;;;2.56;100.00
44675;BME280;30388;52.038;-1.478;2023-03-14T09:12:19;65009.81;;;3.65;100.00
44675;BME280;30388;52.038;-1.478;2023-03-14T09:14:46;65096.27;;;4.27;100.00
44675;BME280;30388;52.038;-1.478;2023-03-14T09:17:13;65030.75;;;3.92;100.00
44675;BME280;30388;52.038;-1.478;2023-03-14T09:19:40;65126.39;;;4.65;100.00
44675;BME280;30388;52.038;-1.478;2023-03-14T09:22:08;65122.19;;;4.60;100.00
44675;BME280;30388;52.038;-1.478;2023-03-14T09:24:35;65116.17;;;5.01;100.00
44675;BME280;30388;52.038;-1.478;2023-03-14T09:27:02;65083.90;;;4.11;100.00
44675;BME280;30388;52.038;-1.478;2023-03-14T09:29:30;65078.45;;;4.04;100.00
44675;BME280;30388;52.038;-1.478;2023-03-14T09:31:58;65143.30;;;4.87;100.00
44675;BME280;30388;52.038;-1.478;2023-03-14T09:34:26;65171.92;;;4.78;100.00
44675;BME280;30388;52.038;-1.478;2023-03-14T09:36:53;65191.07;;;5.03;100.00
44675;BME280;30388;52.038;-1.478;2023-03-14T09:39:20;65191.07;;;5.04;100.00
44675;BME280;30388;52.038;-1.478;2023-03-14T09:41:48;65207.92;;;5.25;100.00
44675;BME280;30388;52.038;-1.478;2023-03-14T09:44:21;65174.18;;;5.03;100.00
44675;BME280;30388;52.038;-1.478;2023-03-14T09:46:52;65219.81;;;5.40;100.00
44675;BME280;30388;52.038;-1.478;2023-03-14T09:49:23;65045.67;;;3.62;100.00
44675;BME280;30388;52.038;-1.478;2023-03-14T09:51:54;65121.59;;;4.59;100.00
44675;BME280;30388;52.038;-1.478;2023-03-14T09:54:30;65111.73;;;4.46;100.00
44675;BME280;30388;52.038;-1.478;2023-03-14T09:56:58;64966.87;;;2.88;100.00
44675;BME280;30388;52.038;-1.478;2023-03-14T09:59:27;65103.51;;;4.35;100.00
44675;BME280;30388;52.038;-1.478;2023-03-14T10:01:57;65193.83;;;5.28;100.00
44675;BME280;30388;52.038;-1.478;2023-03-14T10:04:25;65168.20;;;4.95;100.00
44675;BME280;30388;52.038;-1.478;2023-03-14T10:06:54;65233.21;;;5.56;100.00
44675;BME280;30388;52.038;-1.478;2023-03-14T10:09:23;65276.24;;;5.84;100.00
44675;BME280;30388;52.038;-1.478;2023-03-14T10:11:51;65142.50;;;4.63;100.00
44675;BME280;30388;52.038;-1.478;2023-03-14T10:14:30;65190.93;;;5.25;100.00
44675;BME280;30388;52.038;-1.478;2023-03-14T10:17:05;65152.59;;;4.98;100.00
44675;BME280;30388;52.038;-1.478;2023-03-14T10:19:33;65142.87;;;4.64;100.00
44675;BME280;30388;52.038;-1.478;2023-03-14T10:22:01;65097.33;;;4.28;100.00
44675;BME280;30388;52.038;-1.478;2023-03-14T10:24:30;65117.91;;;4.54;100.00
44675;BME280;30388;52.038;-1.478;2023-03-14T10:26:59;65122.14;;;4.38;100.00
44675;BME280;30388;52.038;-1.478;2023-03-14T10:29:28;65057.05;;;3.77;100.00
44675;BME280;30388;52.038;-1.478;2023-03-14T10:31:59;65108.58;;;4.20;100.00
44675;BME280;30388;52.038;-1.478;2023-03-14T10:34:29;65173.63;;;4.80;100.00
44675;BME280;30388;52.038;-1.478;2023-03-14T10:36:58;65150.76;;;4.96;100.00
44675;BME280;30388;52.038;-1.478;2023-03-14T10:39:30;65231.54;;;5.54;100.00
44675;BME280;30388;52.038;-1.478;2023-03-14T10:42:05;65123.81;;;4.61;100.00
44675;BME280;30388;52.038;-1.478;2023-03-14T10:44:34;65247.99;;;5.76;100.00
44675;BME280;30388;52.038;-1.478;2023-03-14T10:47:03;65301.59;;;6.44;100.00
44675;BME280;30388;52.038;-1.478;2023-03-14T10:49:33;65309.21;;;6.53;100.00
44675;BME280;30388;52.038;-1.478;2023-03-14T10:52:03;65247.38;;;5.25;100.00
44675;BME280;30388;52.038;-1.478;2023-03-14T10:54:40;65251.61;;;5.80;100.00
44675;BME280;30388;52.038;-1.478;2023-03-14T10:57:07;65318.79;;;6.64;100.00
44675;BME280;30388;52.038;-1.478;2023-03-14T10:59:37;65246.07;;;5.72;100.00
44675;BME280;30388;52.038;-1.478;2023-03-14T11:02:20;65273.26;;;5.80;100.00
44675;BME280;30388;52.038;-1.478;2023-03-14T11:05:02;65339.16;;;6.41;100.00
44675;BME280;30388;52.038;-1.478;2023-03-14T11:07:41;65294.29;;;6.07;100.00
44675;BME280;30388;52.038;-1.478;2023-03-14T11:10:14;65274.36;;;5.60;100.00
44675;BME280;30388;52.038;-1.478;2023-03-14T11:12:51;65250.91;;;5.29;100.00
44675;BME280;30388;52.038;-1.478;2023-03-14T11:15:25;65254.14;;;5.84;100.00
44675;BME280;30388;52.038;-1.478;2023-03-14T11:18:07;65239.97;;;5.86;100.00
44675;BME280;30388;52.038;-1.478;2023-03-14T11:20:42;65304.88;;;6.47;100.00
44675;BME280;30388;52.038;-1.478;2023-03-14T11:23:14;65269.15;;;6.02;100.00
44675;BME280;30388;52.038;-1.478;2023-03-14T11:25:48;65228.35;;;5.50;100.00
44675;BME280;30388;52.038;-1.478;2023-03-14T11:28:25;65233.58;;;5.57;100.00
44675;BME280;30388;52.038;-1.478;2023-03-14T11:30:56;65328.90;;;6.77;100.00
44675;BME280;30388;52.038;-1.478;2023-03-14T11:33:28;65179.69;;;5.10;100.00
44675;BME280;30388;52.038;-1.478;2023-03-14T11:36:04;65198.71;;;5.57;100.00
44675;BME280;30388;52.038;-1.478;2023-03-14T11:38:38;65269.46;;;6.02;100.00
44675;BME280;30388;52.038;-1.478;2023-03-14T11:41:13;65283.51;;;6.20;100.00
44675;BME280;30388;52.038;-1.478;2023-03-14T11:43:47;65316.53;;;6.13;100.00
44675;BME280;30388;52.038;-1.478;2023-03-14T11:46:19;65237.41;;;5.61;100.00
44675;BME280;30388;52.038;-1.478;2023-03-14T11:48:57;65358.09;;;6.65;100.00
44675;BME280;30388;52.038;-1.478;2023-03-14T11:51:29;65381.49;;;6.68;100.00
44675;BME280;30388;52.038;-1.478;2023-03-14T11:54:04;65490.49;;;7.63;100.00
44675;BME280;30388;52.038;-1.478;2023-03-14T11:56:39;65520.59;;;8.01;100.00
44675;BME280;30388;52.038;-1.478;2023-03-14T11:59:16;65429.64;;;7.30;100.00
44675;BME280;30388;52.038;-1.478;2023-03-14T12:01:53;65434.64;;;7.14;100.00
44675;BME280;30388;52.038;-1.478;2023-03-14T12:04:31;65512.39;;;7.90;100.00
44675;BME280;30388;52.038;-1.478;2023-03-14T12:07:03;65652.42;;;9.41;100.00
44675;BME280;30388;52.038;-1.478;2023-03-14T12:09:35;65633.21;;;9.17;100.00
44675;BME280;30388;52.038;-1.478;2023-03-14T12:12:04;65556.20;;;8.19;100.00
44675;BME280;30388;52.038;-1.478;2023-03-14T12:14:34;65612.44;;;8.90;100.00
44675;BME280;30388;52.038;-1.478;2023-03-14T12:17:06;65642.30;;;9.28;100.00
44675;BME280;30388;52.038;-1.478;2023-03-14T12:19:36;65440.76;;;7.22;100.00
44675;BME280;30388;52.038;-1.478;2023-03-14T12:22:25;65389.67;;;6.57;100.00
44675;BME280;30388;52.038;-1.478;2023-03-14T12:24:57;65413.28;;;7.09;100.00
44675;BME280;30388;52.038;-1.478;2023-03-14T12:28:31;65479.48;;;7.48;100.00
44675;BME280;30388;52.038;-1.478;2023-03-14T12:31:36;65584.70;;;8.82;100.00
44675;BME280;30388;52.038;-1.478;2023-03-14T12:34:26;65601.20;;;8.53;100.00
44675;BME280;30388;52.038;-1.478;2023-03-14T12:37:01;65625.44;;;9.06;100.00
44675;BME280;30388;52.038;-1.478;2023-03-14T12:39:39;65519.91;;;8.00;100.00
44675;BME280;30388;52.038;-1.478;2023-03-14T12:42:12;65524.13;;;8.28;100.00
44675;BME280;30388;52.038;-1.478;2023-03-14T12:44:44;65506.95;;;8.05;100.00
44675;BME280;30388;52.038;-1.478;2023-03-14T12:47:55;65272.51;;;5.57;100.00
44675;BME280;30388;52.038;-1.478;2023-03-14T12:50:31;65375.25;;;6.88;100.00
44675;BME280;30388;52.038;-1.478;2023-03-14T12:53:15;65350.35;;;6.56;100.00
44675;BME280;30388;52.038;-1.478;2023-03-14T12:55:49;65393.28;;;6.84;100.00
44675;BME280;30388;52.038;-1.478;2023-03-14T12:58:23;65487.51;;;7.81;100.00
44675;BME280;30388;52.038;-1.478;2023-03-14T13:00:56;65580.09;;;8.98;100.00
44675;BME280;30388;52.038;-1.478;2023-03-14T13:03:26;65567.91;;;8.34;100.00